Time;durP1;ratioP1;P1;durP2;ratioP2;P2;SDS_P1;SDS_P2;PMS_P1;PMS_P2;Temp;Humidity;BMP_temperature;BMP_pressure;BME280_temperature;BME280_humidity;BME280_pressure;Samples;Min_cycle;Max_cycle;Signal;HPM_P1;HPM_P2
2022/06/19 00:00:19;;;;;;;;;;;;;;;;;;5097912;28;19908;-43
2022/06/19 00:02:44;;;;;;;;;;;;;;;;;;5097018;28;19916;-42
2022/06/19 00:05:09;;;;;;;;;;;;;;;;;;5097290;28;19915;-42
2022/06/19 00:07:34;;;;;;;;;;;;;;;;;;5097414;28;19913;-43
2022/06/19 00:09:59;;;;;;;;;;;;;;;;;;5095868;28;19912;-42
2022/06/19 00:12:25;;;;;;;;;;;;;;;;;;5097239;28;20312;-42
2022/06/19 00:14:50;;;;;;;;;;;;;;;;;;5096852;28;20373;-43
2022/06/19 00:17:15;;;;;;;;;;;;;;;;;;5097226;28;20274;-42
2022/06/19 00:19:40;;;;;;;;;;;;;;;;;;5096746;28;19918;-42
2022/06/19 00:22:06;;;;;;;;;;;;;;;;;;5096142;28;19991;-42
2022/06/19 00:24:31;;;;;;;;;;;;;;;;;;5096960;28;20358;-42
2022/06/19 00:26:56;;;;;;;;;;;;;;;;;;5096936;28;19905;-43
2022/06/19 00:29:21;;;;;;;;;;;;;;;;;;5096957;28;19912;-42
2022/06/19 00:31:46;;;;;;;;;;;;;;;;;;5096849;28;19912;-42
2022/06/19 00:34:11;;;;;;;;;;;;;;;;;;5096410;28;19924;-42
2022/06/19 00:36:36;;;;;;;;;;;;;;;;;;5096513;28;19912;-42
2022/06/19 00:39:01;;;;;;;;;;;;;;;;;;5097140;28;19915;-42
2022/06/19 00:41:27;;;;;;;;;;;;;;;;;;5096907;28;19932;-42
2022/06/19 00:43:52;;;;;;;;;;;;;;;;;;5096792;28;19967;-42
2022/06/19 00:46:17;;;;;;;;;;;;;;;;;;5096914;28;19908;-43
2022/06/19 00:48:42;;;;;;;;;;;;;;;;;;5096295;28;19908;-42
2022/06/19 00:51:09;;;;;;;;;;;;;;;;;;5096404;28;19915;-42
2022/06/19 00:53:34;;;;;;;;;;;;;;;;;;5096230;28;19908;-42
2022/06/19 00:55:59;;;;;;;;;;;;;;;;;;5096182;28;19912;-42
2022/06/19 00:58:24;;;;;;;;;;;;;;;;;;5096288;28;20377;-42
2022/06/19 01:00:49;;;;;;;;;;;;;;;;;;5096346;28;20286;-42
2022/06/19 01:03:14;;;;;;;;;;;;;;;;;;5096160;28;19915;-42
2022/06/19 01:05:40;;;;;;;;;;;;;;;;;;5096127;28;19915;-42
2022/06/19 01:08:05;;;;;;;;;;;;;;;;;;5096126;28;20359;-42
2022/06/19 01:10:30;;;;;;;;;;;;;;;;;;5096107;28;19908;-42
2022/06/19 01:12:55;;;;;;;;;;;;;;;;;;5096031;28;19915;-42
2022/06/19 01:15:20;;;;;;;;;;;;;;;;;;5095880;28;19965;-42
2022/06/19 01:17:46;;;;;;;;;;;;;;;;;;5095927;28;19969;-42
2022/06/19 01:20:11;;;;;;;;;;;;;;;;;;5095471;28;20279;-41
2022/06/19 01:22:36;;;;;;;;;;;;;;;;;;5095903;28;20492;-42
2022/06/19 01:25:01;;;;;;;;;;;;;;;;;;5095747;28;19908;-42
2022/06/19 01:30:11;;;;;;;;;;;;;;;;;;5095850;28;19962;-42
2022/06/19 01:32:36;;;;;;;;;;;;;;;;;;5095875;28;19912;-42
2022/06/19 01:35:01;;;;;;;;;;;;;;;;;;5095476;28;19942;-42
2022/06/19 01:37:26;;;;;;;;;;;;;;;;;;5095407;28;19915;-42
2022/06/19 01:39:51;;;;;;;;;;;;;;;;;;5095461;28;20273;-42
2022/06/19 01:42:16;;;;;;;;;;;;;;;;;;5095419;28;20363;-42
2022/06/19 01:44:41;;;;;;;;;;;;;;;;;;5095431;28;19954;-42
2022/06/19 01:47:06;;;;;;;;;;;;;;;;;;5092762;28;19934;-42
2022/06/19 01:49:32;;;;;;;;;;;;;;;;;;5095334;28;19915;-42
2022/06/19 01:51:57;;;;;;;;;;;;;;;;;;5095467;28;19908;-42
2022/06/19 01:54:22;;;;;;;;;;;;;;;;;;5095145;28;20448;-42
2022/06/19 01:56:47;;;;;;;;;;;;;;;;;;5095172;28;19966;-42
2022/06/19 01:59:12;;;;;;;;;;;;;;;;;;5095288;28;20340;-42
2022/06/19 02:01:37;;;;;;;;;;;;;;;;;;5095281;28;19930;-42
2022/06/19 02:04:02;;;;;;;;;;;;;;;;;;5095027;28;20267;-42
2022/06/19 02:06:28;;;;;;;;;;;;;;;;;;5095316;28;20274;-42
2022/06/19 02:08:53;;;;;;;;;;;;;;;;;;5095323;28;19920;-41
2022/06/19 02:11:18;;;;;;;;;;;;;;;;;;5094927;28;19908;-41
2022/06/19 02:13:43;;;;;;;;;;;;;;;;;;5094867;28;20355;-42
2022/06/19 02:16:08;;;;;;;;;;;;;;;;;;5095010;28;19912;-42
2022/06/19 02:18:33;;;;;;;;;;;;;;;;;;5094129;28;19909;-42
2022/06/19 02:20:58;;;;;;;;;;;;;;;;;;5094841;28;19908;-42
2022/06/19 02:23:24;;;;;;;;;;;;;;;;;;5094855;28;19912;-42
2022/06/19 02:25:49;;;;;;;;;;;;;;;;;;5095101;28;19908;-42
2022/06/19 02:28:14;;;;;;;;;;;;;;;;;;5095038;28;19987;-42
2022/06/19 02:30:39;;;;;;;;;;;;;;;;;;5095246;28;19918;-42
2022/06/19 02:33:04;;;;;;;;;;;;;;;;;;5097055;28;19908;-42
2022/06/19 02:35:29;;;;;;;;;;;;;;;;;;5099065;28;19916;-42
2022/06/19 02:37:54;;;;;;;;;;;;;;;;;;5098107;28;19908;-42
2022/06/19 02:40:19;;;;;;;;;;;;;;;;;;5098901;28;19980;-42
2022/06/19 02:42:45;;;;;;;;;;;;;;;;;;5098849;28;19919;-42
2022/06/19 02:45:10;;;;;;;;;;;;;;;;;;5098767;28;19908;-42
2022/06/19 02:47:35;;;;;;;;;;;;;;;;;;5098972;28;20049;-42
2022/06/19 02:50:00;;;;;;;;;;;;;;;;;;5098632;28;19915;-42
2022/06/19 02:52:25;;;;;;;;;;;;;;;;;;5098761;28;20007;-42
2022/06/19 02:54:50;;;;;;;;;;;;;;;;;;5098638;28;19916;-42
2022/06/19 02:57:16;;;;;;;;;;;;;;;;;;5098683;28;19981;-42
2022/06/19 02:59:41;;;;;;;;;;;;;;;;;;5098636;28;19999;-41
2022/06/19 03:02:06;;;;;;;;;;;;;;;;;;5098688;28;19904;-42
2022/06/19 03:04:31;;;;;;;;;;;;;;;;;;5098658;28;19908;-43
2022/06/19 03:06:56;;;;;;;;;;;;;;;;;;5098438;28;20317;-42
2022/06/19 03:09:22;;;;;;;;;;;;;;;;;;5098289;28;19998;-42
2022/06/19 03:11:47;;;;;;;;;;;;;;;;;;5098226;28;19997;-42
2022/06/19 03:14:12;;;;;;;;;;;;;;;;;;5098393;28;19994;-42
2022/06/19 03:16:37;;;;;;;;;;;;;;;;;;5097785;28;19922;-43
2022/06/19 03:19:02;;;;;;;;;;;;;;;;;;5098116;28;19915;-43
2022/06/19 03:21:28;;;;;;;;;;;;;;;;;;5098193;28;20279;-42
2022/06/19 03:23:53;;;;;;;;;;;;;;;;;;5098074;28;19909;-43
2022/06/19 03:26:18;;;;;;;;;;;;;;;;;;5098251;28;19918;-42
2022/06/19 03:28:43;;;;;;;;;;;;;;;;;;5098752;28;20354;-42
2022/06/19 03:31:08;;;;;;;;;;;;;;;;;;5098000;28;20379;-42
2022/06/19 03:33:33;;;;;;;;;;;;;;;;;;5097524;28;20355;-41
2022/06/19 03:35:58;;;;;;;;;;;;;;;;;;5097662;28;20319;-42
2022/06/19 03:38:23;;;;;;;;;;;;;;;;;;5097713;28;19958;-42
2022/06/19 03:40:49;;;;;;;;;;;;;;;;;;5097671;28;20373;-42
2022/06/19 03:43:14;;;;;;;;;;;;;;;;;;5097440;28;19908;-42
2022/06/19 03:45:39;;;;;;;;;;;;;;;;;;5097557;28;19915;-42
2022/06/19 03:48:04;;;;;;;;;;;;;;;;;;5097424;28;19951;-42
2022/06/19 03:50:29;;;;;;;;;;;;;;;;;;5097364;28;19947;-42
2022/06/19 03:52:54;;;;;;;;;;;;;;;;;;5097369;28;19940;-41
2022/06/19 03:55:19;;;;;;;;;;;;;;;;;;5097107;28;19916;-42
2022/06/19 03:57:44;;;;;;;;;;;;;;;;;;5097204;28;19912;-42
2022/06/19 04:00:11;;;;;;;;;;;;;;;;;;5097036;28;19912;-43
2022/06/19 04:02:36;;;;;;;;;;;;;;;;;;5096921;28;19962;-42
2022/06/19 04:05:02;;;;;;;;;;;;;;;;;;5096825;28;20359;-42
2022/06/19 04:07:27;;;;;;;;;;;;;;;;;;5097065;28;19908;-42
2022/06/19 04:09:52;;;;;;;;;;;;;;;;;;5096948;28;19908;-42
2022/06/19 04:12:17;;;;;;;;;;;;;;;;;;5096965;28;19911;-43
2022/06/19 04:14:42;;;;;;;;;;;;;;;;;;5096827;28;19915;-42
2022/06/19 04:17:08;;;;;;;;;;;;;;;;;;5097194;28;19908;-42
2022/06/19 04:19:33;;;;;;;;;;;;;;;;;;5097055;28;20320;-42
2022/06/19 04:21:58;;;;;;;;;;;;;;;;;;5096784;28;19923;-41
2022/06/19 04:24:23;;;;;;;;;;;;;;;;;;5097079;28;19912;-42
2022/06/19 04:26:48;;;;;;;;;;;;;;;;;;5096814;28;20343;-41
2022/06/19 04:29:13;;;;;;;;;;;;;;;;;;5097188;28;19939;-41
2022/06/19 04:31:39;;;;;;;;;;;;;;;;;;5096654;28;19934;-41
2022/06/19 04:34:04;;;;;;;;;;;;;;;;;;5096683;28;19920;-42
2022/06/19 04:36:29;;;;;;;;;;;;;;;;;;5096821;28;19933;-42
2022/06/19 04:38:56;;;;;;;;;;;;;;;;;;5096599;28;20375;-42
2022/06/19 04:41:21;;;;;;;;;;;;;;;;;;5096679;28;19908;-43
2022/06/19 04:43:46;;;;;;;;;;;;;;;;;;5096586;28;19909;-42
2022/06/19 04:46:11;;;;;;;;;;;;;;;;;;5096735;28;20307;-41
2022/06/19 04:48:36;;;;;;;;;;;;;;;;;;5096507;28;20383;-42
2022/06/19 04:51:01;;;;;;;;;;;;;;;;;;5096390;28;19912;-42
2022/06/19 04:53:26;;;;;;;;;;;;;;;;;;5096646;28;19995;-42
2022/06/19 04:55:51;;;;;;;;;;;;;;;;;;5095671;28;19912;-42
2022/06/19 04:58:17;;;;;;;;;;;;;;;;;;5096597;28;19908;-40
2022/06/19 05:00:42;;;;;;;;;;;;;;;;;;5096317;28;20461;-41
2022/06/19 05:03:07;;;;;;;;;;;;;;;;;;5096400;28;19908;-41
2022/06/19 05:05:32;;;;;;;;;;;;;;;;;;5096490;28;19908;-41
2022/06/19 05:07:57;;;;;;;;;;;;;;;;;;5096145;28;20041;-41
2022/06/19 05:10:22;;;;;;;;;;;;;;;;;;5096531;28;20003;-42
2022/06/19 05:12:48;;;;;;;;;;;;;;;;;;5096644;28;20008;-41
2022/06/19 05:15:13;;;;;;;;;;;;;;;;;;5095857;28;19927;-41
2022/06/19 05:17:38;;;;;;;;;;;;;;;;;;5096030;28;19909;-41
2022/06/19 05:20:03;;;;;;;;;;;;;;;;;;5095816;28;19912;-41
2022/06/19 05:22:28;;;;;;;;;;;;;;;;;;5095598;28;19914;-41
2022/06/19 05:24:53;;;;;;;;;;;;;;;;;;5094548;28;19908;-44
2022/06/19 05:27:19;;;;;;;;;;;;;;;;;;5095615;28;19970;-41
2022/06/19 05:29:44;;;;;;;;;;;;;;;;;;5096031;28;20240;-41
2022/06/19 05:32:09;;;;;;;;;;;;;;;;;;5095766;28;19931;-41
2022/06/19 05:34:34;;;;;;;;;;;;;;;;;;5095333;28;19976;-41
2022/06/19 05:36:59;;;;;;;;;;;;;;;;;;5095325;28;19912;-41
2022/06/19 05:39:24;;;;;;;;;;;;;;;;;;5095385;28;19908;-41
2022/06/19 05:41:49;;;;;;;;;;;;;;;;;;5095424;28;19908;-42
2022/06/19 05:44:14;;;;;;;;;;;;;;;;;;5095644;28;19963;-41
2022/06/19 05:46:41;;;;;;;;;;;;;;;;;;5095436;28;19908;-41
2022/06/19 05:49:06;;;;;;;;;;;;;;;;;;5095344;28;19908;-41
2022/06/19 05:51:32;;;;;;;;;;;;;;;;;;5095454;28;20015;-41
2022/06/19 05:53:57;;;;;;;;;;;;;;;;;;5095273;28;19994;-41
2022/06/19 05:56:22;;;;;;;;;;;;;;;;;;5095195;28;20266;-41
2022/06/19 05:58:47;;;;;;;;;;;;;;;;;;5095177;28;20343;-42
2022/06/19 06:01:12;;;;;;;;;;;;;;;;;;5095254;28;20028;-41
2022/06/19 06:03:37;;;;;;;;;;;;;;;;;;5095111;28;19912;-41
2022/06/19 06:06:03;;;;;;;;;;;;;;;;;;5095209;28;19909;-41
2022/06/19 06:08:28;;;;;;;;;;;;;;;;;;5095117;28;20275;-41
2022/06/19 06:10:53;;;;;;;;;;;;;;;;;;5094996;28;19908;-42
2022/06/19 06:13:18;;;;;;;;;;;;;;;;;;5094904;28;20378;-41
2022/06/19 06:15:43;;;;;;;;;;;;;;;;;;5095073;28;19918;-41
2022/06/19 06:18:08;;;;;;;;;;;;;;;;;;5093411;28;19934;-42
2022/06/19 06:20:33;;;;;;;;;;;;;;;;;;5094872;28;20408;-41
2022/06/19 06:22:58;;;;;;;;;;;;;;;;;;5094654;28;20282;-42
2022/06/19 06:25:23;;;;;;;;;;;;;;;;;;5094775;28;19962;-42
2022/06/19 06:27:49;;;;;;;;;;;;;;;;;;5094700;28;19968;-42
2022/06/19 06:30:14;;;;;;;;;;;;;;;;;;5094776;28;19953;-43
2022/06/19 06:32:39;;;;;;;;;;;;;;;;;;5094650;28;19908;-43
2022/06/19 06:35:04;;;;;;;;;;;;;;;;;;5094266;28;20434;-42
2022/06/19 06:37:29;;;;;;;;;;;;;;;;;;5094517;28;19912;-42
2022/06/19 06:39:54;;;;;;;;;;;;;;;;;;5094634;28;19927;-42
2022/06/19 06:42:20;;;;;;;;;;;;;;;;;;5094533;28;20370;-41
2022/06/19 06:44:45;;;;;;;;;;;;;;;;;;5094777;28;19908;-41
2022/06/19 06:47:10;;;;;;;;;;;;;;;;;;5094709;28;20028;-43
2022/06/19 06:49:35;;;;;;;;;;;;;;;;;;5094533;28;19915;-42
2022/06/19 06:52:00;;;;;;;;;;;;;;;;;;5093104;28;19909;-42
2022/06/19 06:54:25;;;;;;;;;;;;;;;;;;5094314;28;19915;-41
2022/06/19 06:56:51;;;;;;;;;;;;;;;;;;5094176;28;20002;-42
2022/06/19 06:59:16;;;;;;;;;;;;;;;;;;5094271;28;19908;-43
2022/06/19 07:01:41;;;;;;;;;;;;;;;;;;5094150;28;19999;-42
2022/06/19 07:04:06;;;;;;;;;;;;;;;;;;5094248;28;19908;-43
2022/06/19 07:06:31;;;;;;;;;;;;;;;;;;5094082;28;20240;-42
2022/06/19 07:08:56;;;;;;;;;;;;;;;;;;5094003;28;19944;-43
2022/06/19 07:11:21;;;;;;;;;;;;;;;;;;5093927;28;19908;-43
2022/06/19 07:13:47;;;;;;;;;;;;;;;;;;5094120;28;20373;-43
2022/06/19 07:16:12;;;;;;;;;;;;;;;;;;5094044;28;20014;-43
2022/06/19 07:18:37;;;;;;;;;;;;;;;;;;5095116;28;19908;-42
2022/06/19 07:21:02;;;;;;;;;;;;;;;;;;5097648;28;19948;-44
2022/06/19 07:23:27;;;;;;;;;;;;;;;;;;5097670;28;19908;-43
2022/06/19 07:25:52;;;;;;;;;;;;;;;;;;5097575;28;19908;-45
2022/06/19 07:28:17;;;;;;;;;;;;;;;;;;5097507;28;20389;-44
2022/06/19 07:30:43;;;;;;;;;;;;;;;;;;5097577;28;19944;-44
2022/06/19 07:33:08;;;;;;;;;;;;;;;;;;5097353;28;20010;-43
2022/06/19 07:35:33;;;;;;;;;;;;;;;;;;5097332;28;20283;-43
2022/06/19 07:37:58;;;;;;;;;;;;;;;;;;5097280;28;19908;-43
2022/06/19 07:40:25;;;;;;;;;;;;;;;;;;5097317;28;19915;-44
2022/06/19 07:42:50;;;;;;;;;;;;;;;;;;5097270;28;19948;-43
2022/06/19 07:45:16;;;;;;;;;;;;;;;;;;5097311;28;19909;-43
2022/06/19 07:50:26;;;;;;;;;;;;;;;;;;5097372;28;19915;-43
2022/06/19 07:52:52;;;;;;;;;;;;;;;;;;5097375;28;19961;-44
2022/06/19 07:55:17;;;;;;;;;;;;;;;;;;5097329;28;19912;-43
2022/06/19 07:57:42;;;;;;;;;;;;;;;;;;5097235;28;19908;-44
2022/06/19 08:00:07;;;;;;;;;;;;;;;;;;5097713;28;20004;-43
2022/06/19 08:02:32;;;;;;;;;;;;;;;;;;5097326;28;19916;-44
2022/06/19 08:04:58;;;;;;;;;;;;;;;;;;5097322;28;19915;-43
2022/06/19 08:07:23;;;;;;;;;;;;;;;;;;5097288;28;19915;-43
2022/06/19 08:09:48;;;;;;;;;;;;;;;;;;5097077;28;19912;-43
2022/06/19 08:12:13;;;;;;;;;;;;;;;;;;5096901;28;19935;-47
2022/06/19 08:14:38;;;;;;;;;;;;;;;;;;5096866;28;19908;-43
2022/06/19 08:17:03;;;;;;;;;;;;;;;;;;5096642;28;20007;-44
2022/06/19 08:19:28;;;;;;;;;;;;;;;;;;5096990;28;19908;-44
2022/06/19 08:21:54;;;;;;;;;;;;;;;;;;5097318;28;19908;-44
2022/06/19 08:24:19;;;;;;;;;;;;;;;;;;5096543;28;19909;-43
2022/06/19 08:26:44;;;;;;;;;;;;;;;;;;5096599;28;19915;-43
2022/06/19 08:29:09;;;;;;;;;;;;;;;;;;5095223;28;19923;-43
2022/06/19 08:31:34;;;;;;;;;;;;;;;;;;5095750;28;19959;-43
2022/06/19 08:33:59;;;;;;;;;;;;;;;;;;5096087;28;19980;-43
2022/06/19 08:36:24;;;;;;;;;;;;;;;;;;5096452;28;20355;-43
2022/06/19 08:38:49;;;;;;;;;;;;;;;;;;5095128;28;20366;-43
2022/06/19 08:41:15;;;;;;;;;;;;;;;;;;5096330;28;20279;-43
2022/06/19 08:43:40;;;;;;;;;;;;;;;;;;5096262;28;19923;-44
2022/06/19 08:46:05;;;;;;;;;;;;;;;;;;5096259;28;19908;-43
2022/06/19 08:48:30;;;;;;;;;;;;;;;;;;5096377;28;19923;-43
2022/06/19 08:50:55;;;;;;;;;;;;;;;;;;5096030;28;19915;-44
2022/06/19 08:53:20;;;;;;;;;;;;;;;;;;5095910;28;19947;-43
2022/06/19 08:55:46;;;;;;;;;;;;;;;;;;5095913;28;19912;-43
2022/06/19 08:58:11;;;;;;;;;;;;;;;;;;5095750;28;19908;-43
2022/06/19 09:00:36;;;;;;;;;;;;;;;;;;5095763;28;19915;-43
2022/06/19 09:03:01;;;;;;;;;;;;;;;;;;5095694;28;19908;-43
2022/06/19 09:05:46;;;;;;;;;;;;;;;;;;5095696;28;19915;-42
2022/06/19 09:08:11;;;;;;;;;;;;;;;;;;5095941;28;19915;-42
2022/06/19 09:10:36;;;;;;;;;;;;;;;;;;5095945;28;19908;-43
2022/06/19 09:13:01;;;;;;;;;;;;;;;;;;5095756;28;19908;-42
2022/06/19 09:15:26;;;;;;;;;;;;;;;;;;5095530;28;20359;-42
2022/06/19 09:17:52;;;;;;;;;;;;;;;;;;5095645;28;20248;-42
2022/06/19 09:20:17;;;;;;;;;;;;;;;;;;5095478;28;19908;-42
2022/06/19 09:22:43;;;;;;;;;;;;;;;;;;5095647;28;19912;-42
2022/06/19 09:25:08;;;;;;;;;;;;;;;;;;5095397;28;19915;-42
2022/06/19 09:27:33;;;;;;;;;;;;;;;;;;5095381;28;20370;-43
2022/06/19 09:29:58;;;;;;;;;;;;;;;;;;5095548;28;19908;-42
2022/06/19 09:32:23;;;;;;;;;;;;;;;;;;5094155;28;20007;-42
2022/06/19 09:34:48;;;;;;;;;;;;;;;;;;5095132;28;19927;-42
2022/06/19 09:37:13;;;;;;;;;;;;;;;;;;5095326;28;19908;-41
2022/06/19 09:39:42;;;;;;;;;;;;;;;;;;5095416;28;19908;-43
2022/06/19 09:42:07;;;;;;;;;;;;;;;;;;5095295;28;19914;-42
2022/06/19 09:44:32;;;;;;;;;;;;;;;;;;5095379;28;19908;-43
2022/06/19 09:46:57;;;;;;;;;;;;;;;;;;5095139;28;20295;-42
2022/06/19 09:49:22;;;;;;;;;;;;;;;;;;5095002;28;19912;-43
2022/06/19 09:51:47;;;;;;;;;;;;;;;;;;5094934;28;19911;-43
2022/06/19 09:54:13;;;;;;;;;;;;;;;;;;5094931;28;20353;-42
2022/06/19 09:56:38;;;;;;;;;;;;;;;;;;5094745;28;20394;-42
2022/06/19 09:59:03;;;;;;;;;;;;;;;;;;5094877;28;19908;-42
2022/06/19 10:01:28;;;;;;;;;;;;;;;;;;5094919;28;19909;-42
2022/06/19 10:03:53;;;;;;;;;;;;;;;;;;5095143;28;19912;-43
2022/06/19 10:06:18;;;;;;;;;;;;;;;;;;5094777;28;19908;-45
2022/06/19 10:08:44;;;;;;;;;;;;;;;;;;5094961;28;19965;-42
2022/06/19 10:11:09;;;;;;;;;;;;;;;;;;5093788;28;19912;-42
2022/06/19 10:13:34;;;;;;;;;;;;;;;;;;5094774;28;20328;-42
2022/06/19 10:15:59;;;;;;;;;;;;;;;;;;5094638;28;19912;-42
2022/06/19 10:18:24;;;;;;;;;;;;;;;;;;5094663;28;19915;-42
2022/06/19 10:20:49;;;;;;;;;;;;;;;;;;5094688;28;19908;-42
2022/06/19 10:23:14;;;;;;;;;;;;;;;;;;5094415;28;19957;-43
2022/06/19 10:25:39;;;;;;;;;;;;;;;;;;5094641;28;19947;-43
2022/06/19 10:28:05;;;;;;;;;;;;;;;;;;5094466;28;19951;-43
2022/06/19 10:30:30;;;;;;;;;;;;;;;;;;5094660;28;20282;-43
2022/06/19 10:32:55;;;;;;;;;;;;;;;;;;5094280;28;20412;-43
2022/06/19 10:35:20;;;;;;;;;;;;;;;;;;5094431;28;19962;-42
2022/06/19 10:37:45;;;;;;;;;;;;;;;;;;5094549;28;20262;-42
2022/06/19 10:40:10;;;;;;;;;;;;;;;;;;5094612;28;19948;-42
2022/06/19 10:42:35;;;;;;;;;;;;;;;;;;5094563;28;19908;-42
2022/06/19 10:45:01;;;;;;;;;;;;;;;;;;5094418;28;19915;-43
2022/06/19 10:47:26;;;;;;;;;;;;;;;;;;5094416;28;20338;-42
2022/06/19 10:49:51;;;;;;;;;;;;;;;;;;5094688;28;19943;-43
2022/06/19 10:52:16;;;;;;;;;;;;;;;;;;5095014;28;19908;-42
2022/06/19 10:54:41;;;;;;;;;;;;;;;;;;5097714;28;19916;-43
2022/06/19 10:57:07;;;;;;;;;;;;;;;;;;5098423;28;19912;-42
2022/06/19 10:59:32;;;;;;;;;;;;;;;;;;5098366;28;19908;-42
2022/06/19 11:04:41;;;;;;;;;;;;;;;;;;5098262;28;19958;-42
2022/06/19 11:07:06;;;;;;;;;;;;;;;;;;5098334;28;19908;-45
2022/06/19 11:09:31;;;;;;;;;;;;;;;;;;5098120;28;19915;-42
2022/06/19 11:11:56;;;;;;;;;;;;;;;;;;5098444;28;19908;-43
2022/06/19 11:14:21;;;;;;;;;;;;;;;;;;5098032;28;20331;-42
2022/06/19 11:16:46;;;;;;;;;;;;;;;;;;5097937;28;19916;-42
2022/06/19 11:19:11;;;;;;;;;;;;;;;;;;5097925;28;19908;-42
2022/06/19 11:21:37;;;;;;;;;;;;;;;;;;5097860;28;20006;-42
2022/06/19 11:24:02;;;;;;;;;;;;;;;;;;5098073;28;19954;-43
2022/06/19 11:26:27;;;;;;;;;;;;;;;;;;5097989;28;20007;-43
2022/06/19 11:28:52;;;;;;;;;;;;;;;;;;5097897;28;19914;-43
2022/06/19 11:31:17;;;;;;;;;;;;;;;;;;5097863;28;19998;-43
2022/06/19 11:33:42;;;;;;;;;;;;;;;;;;5098004;22;19920;-44
2022/06/19 11:36:08;;;;;;;;;;;;;;;;;;5077224;28;19913;-42
2022/06/19 11:38:33;;;;;;;;;;;;;;;;;;5076725;28;19923;-43
2022/06/19 11:40:58;;;;;;;;;;;;;;;;;;5077265;28;19953;-42
2022/06/19 11:43:23;;;;;;;;;;;;;;;;;;5077372;28;19916;-42
2022/06/19 11:45:48;;;;;;;;;;;;;;;;;;5077483;28;19916;-42
2022/06/19 11:48:13;;;;;;;;;;;;;;;;;;5077215;28;19912;-42
2022/06/19 11:50:39;;;;;;;;;;;;;;;;;;5077077;28;19948;-43
2022/06/19 11:53:04;;;;;;;;;;;;;;;;;;5076975;28;19913;-43
2022/06/19 11:55:30;;;;;;;;;;;;;;;;;;5077301;28;20262;-42
2022/06/19 11:57:55;;;;;;;;;;;;;;;;;;5077254;28;20024;-43
2022/06/19 12:00:20;;;;;;;;;;;;;;;;;;5077495;28;19924;-43
2022/06/19 12:02:45;;;;;;;;;;;;;;;;;;5077236;28;20270;-43
2022/06/19 12:05:10;;;;;;;;;;;;;;;;;;5077200;28;19908;-43
2022/06/19 12:07:35;;;;;;;;;;;;;;;;;;5076878;28;19958;-43
2022/06/19 12:10:00;;;;;;;;;;;;;;;;;;5076855;28;19982;-42
2022/06/19 12:12:25;;;;;;;;;;;;;;;;;;5076609;28;19908;-43
2022/06/19 12:14:51;;;;;;;;;;;;;;;;;;5076635;28;20317;-43
2022/06/19 12:17:16;;;;;;;;;;;;;;;;;;5076508;28;19912;-43
2022/06/19 12:19:41;;;;;;;;;;;;;;;;;;5076662;28;20333;-43
2022/06/19 12:22:06;;;;;;;;;;;;;;;;;;5076560;28;19967;-42
2022/06/19 12:24:31;;;;;;;;;;;;;;;;;;5076376;28;19951;-42
2022/06/19 12:26:57;;;;;;;;;;;;;;;;;;5076559;28;19914;-42
2022/06/19 12:29:22;;;;;;;;;;;;;;;;;;5076869;28;19935;-43
2022/06/19 12:31:47;;;;;;;;;;;;;;;;;;5075818;28;19908;-43
2022/06/19 12:34:12;;;;;;;;;;;;;;;;;;5075900;28;19928;-42
2022/06/19 12:36:37;;;;;;;;;;;;;;;;;;5076058;28;19967;-44
2022/06/19 12:39:02;;;;;;;;;;;;;;;;;;5074812;28;19915;-43
2022/06/19 12:41:28;;;;;;;;;;;;;;;;;;5076054;28;20047;-43
2022/06/19 12:43:53;;;;;;;;;;;;;;;;;;5075823;28;19927;-43
2022/06/19 12:46:18;;;;;;;;;;;;;;;;;;5075735;28;19916;-42
2022/06/19 12:48:44;;;;;;;;;;;;;;;;;;5072343;28;19921;-43
2022/06/19 12:51:09;;;;;;;;;;;;;;;;;;5055918;28;19913;-42
2022/06/19 12:53:34;;;;;;;;;;;;;;;;;;5055752;28;19913;-44
2022/06/19 12:55:59;;;;;;;;;;;;;;;;;;5055761;28;19912;-42
2022/06/19 12:58:24;;;;;;;;;;;;;;;;;;5055657;28;20282;-42
2022/06/19 13:00:49;;;;;;;;;;;;;;;;;;5055873;28;20378;-43
2022/06/19 13:03:15;;;;;;;;;;;;;;;;;;5055804;28;19909;-42
2022/06/19 13:05:40;;;;;;;;;;;;;;;;;;5055809;28;20028;-42
2022/06/19 13:08:05;;;;;;;;;;;;;;;;;;5055646;28;19909;-42
2022/06/19 13:10:30;;;;;;;;;;;;;;;;;;5055956;28;20387;-42
2022/06/19 13:12:55;;;;;;;;;;;;;;;;;;5055544;28;20359;-42
2022/06/19 13:15:20;;;;;;;;;;;;;;;;;;5055264;28;19913;-43
2022/06/19 13:17:45;;;;;;;;;;;;;;;;;;5070472;28;19908;-42
2022/06/19 13:20:10;;;;;;;;;;;;;;;;;;5055560;28;19909;-42
2022/06/19 13:22:35;;;;;;;;;;;;;;;;;;5055507;28;19909;-42
2022/06/19 13:25:01;;;;;;;;;;;;;;;;;;5055363;28;19909;-42
2022/06/19 13:27:26;;;;;;;;;;;;;;;;;;5055187;28;19918;-43
2022/06/19 13:29:51;;;;;;;;;;;;;;;;;;5055343;28;19905;-42
2022/06/19 13:32:16;;;;;;;;;;;;;;;;;;5055219;28;20398;-42
2022/06/19 13:34:41;;;;;;;;;;;;;;;;;;5070284;28;20371;-43
2022/06/19 13:37:06;;;;;;;;;;;;;;;;;;5054811;28;20069;-44
2022/06/19 13:39:32;;;;;;;;;;;;;;;;;;5055047;28;20011;-43
2022/06/19 13:41:57;;;;;;;;;;;;;;;;;;5054841;28;19909;-45
2022/06/19 13:44:22;;;;;;;;;;;;;;;;;;5054817;28;19956;-44
2022/06/19 13:46:47;;;;;;;;;;;;;;;;;;5054713;28;20335;-43
2022/06/19 13:49:12;;;;;;;;;;;;;;;;;;5054939;28;19913;-46
2022/06/19 13:51:37;;;;;;;;;;;;;;;;;;5054705;28;19916;-45
2022/06/19 13:54:02;;;;;;;;;;;;;;;;;;5054599;28;19944;-43
2022/06/19 13:56:28;;;;;;;;;;;;;;;;;;5054636;28;19964;-43
2022/06/19 13:58:53;;;;;;;;;;;;;;;;;;5054911;28;19909;-43
2022/06/19 14:01:18;;;;;;;;;;;;;;;;;;5054712;28;20256;-43
2022/06/19 14:06:27;;;;;;;;;;;;;;;;;;5054879;28;19996;-43
2022/06/19 14:08:52;;;;;;;;;;;;;;;;;;5054447;28;19948;-42
2022/06/19 14:11:17;;;;;;;;;;;;;;;;;;5054450;28;20038;-43
2022/06/19 14:13:42;;;;;;;;;;;;;;;;;;5054332;28;19920;-42
2022/06/19 14:16:08;;;;;;;;;;;;;;;;;;5054552;28;19936;-43
2022/06/19 14:18:33;;;;;;;;;;;;;;;;;;5054453;28;19916;-43
2022/06/19 14:20:58;;;;;;;;;;;;;;;;;;5054488;28;19932;-43
2022/06/19 14:23:25;;;;;;;;;;;;;;;;;;5054318;28;19978;-44
2022/06/19 14:25:50;;;;;;;;;;;;;;;;;;5054280;28;19909;-42
2022/06/19 14:28:15;;;;;;;;;;;;;;;;;;5055008;28;20383;-43
2022/06/19 14:30:40;;;;;;;;;;;;;;;;;;5058591;28;20310;-42
2022/06/19 14:33:08;;;;;;;;;;;;;;;;;;5058466;28;19912;-43
2022/06/19 14:35:33;;;;;;;;;;;;;;;;;;5058211;28;19925;-42
2022/06/19 14:37:58;;;;;;;;;;;;;;;;;;5058411;28;20377;-42
2022/06/19 14:40:23;;;;;;;;;;;;;;;;;;5058462;28;19909;-43
2022/06/19 14:42:49;;;;;;;;;;;;;;;;;;5058288;28;19944;-43
2022/06/19 14:45:14;;;;;;;;;;;;;;;;;;5058270;28;19916;-43
2022/06/19 14:47:39;;;;;;;;;;;;;;;;;;5058278;28;19916;-43
2022/06/19 14:50:04;;;;;;;;;;;;;;;;;;5073657;28;19915;-43
2022/06/19 14:52:29;;;;;;;;;;;;;;;;;;5058126;28;19932;-43
2022/06/19 14:54:54;;;;;;;;;;;;;;;;;;5058062;28;19912;-43
2022/06/19 14:57:22;;;;;;;;;;;;;;;;;;5057766;28;19913;-43
2022/06/19 14:59:47;;;;;;;;;;;;;;;;;;5057942;28;19909;-43
2022/06/19 15:02:12;;;;;;;;;;;;;;;;;;5057900;28;19995;-43
2022/06/19 15:04:37;;;;;;;;;;;;;;;;;;5057802;28;20016;-42
2022/06/19 15:07:02;;;;;;;;;;;;;;;;;;5057750;28;19909;-43
2022/06/19 15:09:27;;;;;;;;;;;;;;;;;;5058902;28;19916;-43
2022/06/19 15:11:53;;;;;;;;;;;;;;;;;;5077476;28;20303;-43
2022/06/19 15:14:19;;;;;;;;;;;;;;;;;;5077112;28;19908;-43
2022/06/19 15:16:44;;;;;;;;;;;;;;;;;;5057595;28;19956;-43
2022/06/19 15:19:09;;;;;;;;;;;;;;;;;;5057531;28;19967;-43
2022/06/19 15:21:34;;;;;;;;;;;;;;;;;;5057538;28;20436;-43
2022/06/19 15:24:00;;;;;;;;;;;;;;;;;;5057338;28;19948;-43
2022/06/19 15:26:25;;;;;;;;;;;;;;;;;;5072740;28;19913;-42
2022/06/19 15:28:50;;;;;;;;;;;;;;;;;;5057390;28;19909;-44
2022/06/19 15:31:15;;;;;;;;;;;;;;;;;;5057314;28;19913;-44
2022/06/19 15:33:40;;;;;;;;;;;;;;;;;;5057008;28;19967;-42
2022/06/19 15:36:05;;;;;;;;;;;;;;;;;;5057053;28;19913;-43
2022/06/19 15:38:30;;;;;;;;;;;;;;;;;;5057109;28;19915;-44
2022/06/19 15:40:56;;;;;;;;;;;;;;;;;;5056670;28;19967;-43
2022/06/19 15:43:21;;;;;;;;;;;;;;;;;;5057009;28;19909;-43
2022/06/19 15:45:47;;;;;;;;;;;;;;;;;;5057005;28;19948;-46
2022/06/19 15:48:12;;;;;;;;;;;;;;;;;;5056910;28;19916;-43
2022/06/19 15:50:37;;;;;;;;;;;;;;;;;;5056920;28;19909;-42
2022/06/19 15:53:02;;;;;;;;;;;;;;;;;;5057025;28;20005;-43
2022/06/19 15:55:28;;;;;;;;;;;;;;;;;;5056724;28;19976;-43
2022/06/19 15:57:53;;;;;;;;;;;;;;;;;;5056639;28;19912;-43
2022/06/19 16:00:18;;;;;;;;;;;;;;;;;;5056559;28;19948;-43
2022/06/19 16:02:43;;;;;;;;;;;;;;;;;;5056569;28;19962;-43
2022/06/19 16:05:09;;;;;;;;;;;;;;;;;;5056499;28;19915;-43
2022/06/19 16:07:35;;;;;;;;;;;;;;;;;;5056633;28;19920;-44
2022/06/19 16:10:00;;;;;;;;;;;;;;;;;;5056446;28;20360;-42
2022/06/19 16:12:25;;;;;;;;;;;;;;;;;;5056512;28;19927;-43
2022/06/19 16:14:50;;;;;;;;;;;;;;;;;;5071935;28;19912;-43
2022/06/19 16:17:15;;;;;;;;;;;;;;;;;;5056377;28;20011;-43
2022/06/19 16:19:41;;;;;;;;;;;;;;;;;;5056265;28;20430;-43
2022/06/19 16:22:06;;;;;;;;;;;;;;;;;;5056189;28;20000;-45
2022/06/19 16:24:31;;;;;;;;;;;;;;;;;;5056335;28;19909;-44
2022/06/19 16:26:57;;;;;;;;;;;;;;;;;;5056277;28;19909;-44
2022/06/19 16:29:23;;;;;;;;;;;;;;;;;;5056309;28;19908;-43
2022/06/19 16:31:48;;;;;;;;;;;;;;;;;;5056205;28;19917;-44
2022/06/19 16:34:13;;;;;;;;;;;;;;;;;;5056076;28;19924;-44
2022/06/19 16:44:02;;;;;;;;;;;;;;;;;;5056035;28;19920;-43
2022/06/19 16:45:01;;;;;;;;;;;;;;;;;;5055867;28;19916;-43
2022/06/19 16:47:26;;;;;;;;;;;;;;;;;;5056474;28;19909;-43